Map

Track Data

SID SEASON NUMBER BASIN SUBBASIN NAME ISO_TIME NATURE LAT LON WMO_WIND WMO_PRES WMO_AGENCY TRACK_TYPE DIST2LAND LANDFALL IFLAG USA_AGENCY USA_ATCF_ID USA_LAT USA_LON USA_RECORD USA_STATUS USA_WIND USA_PRES USA_SSHS USA_R34_NE USA_R34_SE USA_R34_SW USA_R34_NW USA_R50_NE USA_R50_SE USA_R50_SW USA_R50_NW USA_R64_NE USA_R64_SE USA_R64_SW USA_R64_NW USA_POCI USA_ROCI USA_RMW USA_EYE TOKYO_LAT TOKYO_LON TOKYO_GRADE TOKYO_WIND TOKYO_PRES TOKYO_R50_DIR TOKYO_R50_LONG TOKYO_R50_SHORT TOKYO_R30_DIR TOKYO_R30_LONG TOKYO_R30_SHORT TOKYO_LAND CMA_LAT CMA_LON CMA_CAT CMA_WIND CMA_PRES HKO_LAT HKO_LON HKO_CAT HKO_WIND HKO_PRES NEWDELHI_LAT NEWDELHI_LON NEWDELHI_GRADE NEWDELHI_WIND NEWDELHI_PRES NEWDELHI_CI NEWDELHI_DP NEWDELHI_POCI REUNION_LAT REUNION_LON REUNION_TYPE REUNION_WIND REUNION_PRES REUNION_TNUM REUNION_CI REUNION_RMW REUNION_R34_NE REUNION_R34_SE REUNION_R34_SW REUNION_R34_NW REUNION_R50_NE REUNION_R50_SE REUNION_R50_SW REUNION_R50_NW REUNION_R64_NE REUNION_R64_SE REUNION_R64_SW REUNION_R64_NW BOM_LAT BOM_LON BOM_TYPE BOM_WIND BOM_PRES BOM_TNUM BOM_CI BOM_RMW BOM_R34_NE BOM_R34_SE BOM_R34_SW BOM_R34_NW BOM_R50_NE BOM_R50_SE BOM_R50_SW BOM_R50_NW BOM_R64_NE BOM_R64_SE BOM_R64_SW BOM_R64_NW BOM_ROCI BOM_POCI BOM_EYE BOM_POS_METHOD BOM_PRES_METHOD NADI_LAT NADI_LON NADI_CAT NADI_WIND NADI_PRES WELLINGTON_LAT WELLINGTON_LON WELLINGTON_WIND WELLINGTON_PRES DS824_LAT DS824_LON DS824_STAGE DS824_WIND DS824_PRES TD9636_LAT TD9636_LON TD9636_STAGE TD9636_WIND TD9636_PRES TD9635_LAT TD9635_LON TD9635_WIND TD9635_PRES TD9635_ROCI NEUMANN_LAT NEUMANN_LON NEUMANN_CLASS NEUMANN_WIND NEUMANN_PRES MLC_LAT MLC_LON MLC_CLASS MLC_WIND MLC_PRES USA_GUST BOM_GUST BOM_GUST_PER REUNION_GUST REUNION_GUST_PER USA_SEAHGT USA_SEARAD_NE USA_SEARAD_SE USA_SEARAD_SW USA_SEARAD_NW STORM_SPEED STORM_DIR
1997133N03092 1997 30 NI BB NOT_NAMED 1997-05-13 00:00:00 NR 3.20000 91.9000 main 432 432 O_____________ jtwc_io IO011997 3.20000 91.9000 15 -1 1 0
1997133N03092 1997 30 NI BB NOT_NAMED 1997-05-13 03:00:00 NR 3.24000 91.9100 main 432 427 P_____________ IO011997 3.24000 91.9100 15 -1 1 0
1997133N03092 1997 30 NI BB NOT_NAMED 1997-05-13 06:00:00 NR 3.30000 91.9000 main 427 422 O_____________ jtwc_io IO011997 3.30000 91.9000 15 -1 2 339
1997133N03092 1997 30 NI BB NOT_NAMED 1997-05-13 09:00:00 NR 3.39250 91.8575 main 422 422 P_____________ IO011997 3.39250 91.8575 15 -1 2 333
1997133N03092 1997 30 NI BB NOT_NAMED 1997-05-13 12:00:00 NR 3.50000 91.8000 main 427 422 O_____________ jtwc_io IO011997 3.50000 91.8000 15 -1 2 332
1997133N03092 1997 30 NI BB NOT_NAMED 1997-05-13 15:00:00 NR 3.59250 91.7500 main 422 422 P_____________ IO011997 3.59250 91.7500 15 -1 2 333
1997133N03092 1997 30 NI BB NOT_NAMED 1997-05-13 18:00:00 NR 3.70000 91.7000 main 427 423 O_____________ jtwc_io IO011997 3.70000 91.7000 15 -1 3 336
1997133N03092 1997 30 NI BB NOT_NAMED 1997-05-13 21:00:00 NR 3.83500 91.6425 main 433 425 P_____________ IO011997 3.83500 91.6425 17 -1 3 343
1997133N03092 1997 30 NI BB NOT_NAMED 1997-05-14 00:00:00 NR 4.00000 91.6000 main 425 417 O_____________ jtwc_io IO011997 4.00000 91.6000 20 -1 3 352
1997133N03092 1997 30 NI BB NOT_NAMED 1997-05-14 03:00:00 NR 4.17000 91.6075 main 417 411 P_____________ IO011997 4.17000 91.6075 22 -1 4 0
1997133N03092 1997 30 NI BB NOT_NAMED 1997-05-14 06:00:00 NR 4.40000 91.6000 main 411 404 O_____________ jtwc_io IO011997 4.40000 91.6000 25 -1 5 354
1997133N03092 1997 30 NI BB NOT_NAMED 1997-05-14 09:00:00 NR 4.69749 91.5449 main 415 411 P_____________ IO011997 4.69749 91.5449 27 -1 7 344
1997133N03092 1997 30 NI BB NOT_NAMED 1997-05-14 12:00:00 NR 5.10000 91.4000 main 421 421 O_____________ jtwc_io IO011997 5.10000 91.4000 30 -1 10 335
1997133N03092 1997 30 NI BB NOT_NAMED 1997-05-14 15:00:00 NR 5.62755 91.1151 main 454 454 P_____________ IO011997 5.62755 91.1151 32 -1 13 331
1997133N03092 1997 30 NI BB NOT_NAMED 1997-05-14 18:00:00 NR 6.20000 90.8000 main 491 491 O_____________ jtwc_io IO011997 6.20000 90.8000 35 0 12 334
1997133N03092 1997 30 NI BB NOT_NAMED 1997-05-14 21:00:00 NR 6.72248 90.5700 main 523 523 P_____________ IO011997 6.72248 90.5700 37 0 11 338
1997133N03092 1997 30 NI BB NOT_NAMED 1997-05-15 00:00:00 NR 7.20000 90.4000 main 560 560 O_____________ jtwc_io IO011997 7.20000 90.4000 40 0 10 342
1997133N03092 1997 30 NI BB NOT_NAMED 1997-05-15 03:00:00 NR 7.65248 90.2625 main 590 590 P_____________ IO011997 7.65248 90.2625 42 0 5 344
1997133N03092 1997 30 NI BB NOT_NAMED 1997-05-15 06:00:00 NR 7.70000 90.2600 25 1000 newdelhi main 590 590 O___O_________ jtwc_io IO011997 8.00000 90.2000 45 0 6.50000 90.5000 D 25 1000 1.50000 4 2 20
1997133N03092 1997 30 NI BB NOT_NAMED 1997-05-15 09:00:00 NR 7.79166 90.3183 25 1000 newdelhi main 595 589 P___O_________ IO011997 8.18749 90.2275 47 0 7.00000 90.5000 D 25 1000 1.50000 4 3 26
1997133N03092 1997 30 NI BB NOT_NAMED 1997-05-15 12:00:00 NR 7.95714 90.3857 30 1000 newdelhi main 594 594 O___O_________ jtwc_io IO011997 8.30000 90.3000 50 0 7.50000 90.5000 DD 30 1000 2.00000 4 3 18
1997133N03092 1997 30 NI BB NOT_NAMED 1997-05-15 15:00:00 NR 8.12181 90.4213 main 599 599 P___P_________ IO011997 8.44250 90.3425 50 0 7.80113 90.5000 DD 30 1001 4 4 11
1997133N03092 1997 30 NI BB NOT_NAMED 1997-05-15 18:00:00 NR 8.30000 90.4500 30 1002 newdelhi main 600 600 O___O_________ jtwc_io IO011997 8.60000 90.4000 50 0 8.00000 90.5000 DD 30 1002 2.00000 5 4 11
1997133N03092 1997 30 NI BB NOT_NAMED 1997-05-15 21:00:00 NR 8.48443 90.4888 main 612 612 P___P_________ IO011997 8.76999 90.4776 50 0 8.19887 90.5000 DD 30 1002 5 5 12
1997133N03092 1997 30 NI BB NOT_NAMED 1997-05-16 00:00:00 NR 8.75000 90.5500 30 1002 newdelhi main 621 615 O___O_________ jtwc_io IO011997 9.00000 90.6000 50 0 8.50000 90.5000 DD 30 1002 2.00000 6 7 13
1997133N03092 1997 30 NI BB NOT_NAMED 1997-05-16 03:00:00 NR 9.15626 90.6462 35 1001 newdelhi main 648 639 P___O_________ IO011997 9.31253 90.7925 50 0 9.00000 90.5000 CS 35 1001 2.50000 7 7 16
1997133N03092 1997 30 NI BB NOT_NAMED 1997-05-16 06:00:00 NR 9.45000 90.7500 35 1001 newdelhi main 653 645 O___O_________ jtwc_io IO011997 9.70000 91.0000 50 0 9.20000 90.5000 CS 35 1001 2.50000 7 7 16
1997133N03092 1997 30 NI BB NOT_NAMED 1997-05-16 09:00:00 NR 9.81375 90.8325 35 1001 newdelhi main 675 675 P___O_________ IO011997 10.1275 91.1650 52 0 9.50000 90.5000 CS 35 1001 2.50000 7 9 25
1997133N03092 1997 30 NI BB NOT_NAMED 1997-05-16 12:00:00 NR 10.3000 91.1500 35 999 newdelhi main 686 662 O___O_________ jtwc_io IO011997 10.6000 91.3000 55 0 10.0000 91.0000 CS 35 999 2.50000 7 10 29
1997133N03092 1997 30 NI BB NOT_NAMED 1997-05-16 15:00:00 NR 10.6968 91.3290 main 662 627 P___P_________ IO011997 11.0925 91.4225 57 0 10.3010 91.2354 CS 35 999 7 8 18
1997133N03092 1997 30 NI BB NOT_NAMED 1997-05-16 18:00:00 NR 11.0500 91.4000 35 999 newdelhi main 618 599 O___O_________ jtwc_io IO011997 11.6000 91.5000 60 0 10.5000 91.3000 CS 35 999 2.50000 7 7 10
1997133N03092 1997 30 NI BB NOT_NAMED 1997-05-16 21:00:00 NR 11.3483 91.4455 main 599 546 P___P_________ IO011997 12.1000 91.5375 62 0 10.5966 91.3536 CS 35 998 7 8 4
1997133N03092 1997 30 NI BB NOT_NAMED 1997-05-17 00:00:00 NR 11.8000 91.4500 35 998 newdelhi main 546 491 O___O_________ jtwc_io IO011997 12.6000 91.5000 65 1 11.0000 91.4000 CS 35 998 2.50000 8 12 0
1997133N03092 1997 30 NI BB NOT_NAMED 1997-05-17 03:00:00 NR 12.5575 91.4438 35 998 newdelhi main 482 426 P___O_________ IO011997 13.1150 91.3875 67 1 12.0000 91.5000 CS 35 998 2.50000 8 15 356
1997133N03092 1997 30 NI BB NOT_NAMED 1997-05-17 06:00:00 NR 13.3000 91.3500 45 992 newdelhi main 426 404 O___O_________ jtwc_io IO011997 13.6000 91.2000 70 1 13.0000 91.5000 CS 45 992 3.00000 12 12 350
1997133N03092 1997 30 NI BB NOT_NAMED 1997-05-17 09:00:00 NR 13.7575 91.2250 55 986 newdelhi main 405 399 P___O_________ IO011997 14.0150 90.9500 72 1 13.5000 91.5000 SCS 55 986 3.50000 16 10 332
1997133N03092 1997 30 NI BB NOT_NAMED 1997-05-17 12:00:00 NR 14.2000 90.8500 55 986 newdelhi main 407 406 O___O_________ jtwc_io IO011997 14.4000 90.7000 75 1 14.0000 91.0000 SCS 55 986 3.50000 16 10 331
1997133N03092 1997 30 NI BB NOT_NAMED 1997-05-17 15:00:00 NR 14.6424 90.7123 main 406 388 P___P_________ IO011997 14.7850 90.5274 77 1 14.4999 90.8973 SCS 55 986 16 9 351
1997133N03092 1997 30 NI BB NOT_NAMED 1997-05-17 18:00:00 NR 15.1000 90.7000 55 986 newdelhi main 388 377 O___O_________ jtwc_io IO011997 15.2000 90.4000 80 1 15.0000 91.0000 SCS 55 986 3.50000 16 10 358
1997133N03092 1997 30 NI BB NOT_NAMED 1997-05-17 21:00:00 NR 15.5924 90.6859 main 377 374 P___P_________ IO011997 15.6850 90.2701 85 2 15.4999 91.1018 SCS 55 986 16 10 354
1997133N03092 1997 30 NI BB NOT_NAMED 1997-05-18 00:00:00 NR 16.1000 90.6000 55 986 newdelhi main 384 384 O___O_________ jtwc_io IO011997 16.2000 90.2000 90 2 16.0000 91.0000 SCS 55 986 3.50000 16 11 343
1997133N03092 1997 30 NI BB NOT_NAMED 1997-05-18 03:00:00 NR 16.5962 90.3637 65 980 newdelhi main 411 408 P___O_________ IO011997 16.6925 90.2274 92 2 16.5000 90.5000 SCS(H) 65 980 4.00000 22 10 349
1997133N03092 1997 30 NI BB NOT_NAMED 1997-05-18 06:00:00 NR 17.1000 90.4000 65 980 newdelhi main 408 382 O___O_________ jtwc_io IO011997 17.2000 90.3000 95 2 17.0000 90.5000 SCS(H) 65 980 4.00000 22 10 3
1997133N03092 1997 30 NI BB NOT_NAMED 1997-05-18 09:00:00 NR 17.6250 90.4250 65 980 newdelhi main 382 336 P___O_________ IO011997 17.7500 90.3500 97 3 17.5000 90.5000 SCS(H) 65 980 4.00000 22 11 2
1997133N03092 1997 30 NI BB NOT_NAMED 1997-05-18 12:00:00 NR 18.1500 90.4500 65 980 newdelhi main 329 300 O___O_________ jtwc_io IO011997 18.3000 90.4000 100 3 18.0000 90.5000 SCS(H) 65 980 4.00000 22 11 359
1997133N03092 1997 30 NI BB NOT_NAMED 1997-05-18 15:00:00 NR 18.7376 90.4042 main 300 261 P___P_________ IO011997 18.8150 90.4352 102 3 18.6602 90.3733 SCS(H) 71 977 26 12 358
1997133N03092 1997 30 NI BB NOT_NAMED 1997-05-18 18:00:00 NR 19.3000 90.4000 77 974 newdelhi main 261 227 O___O_________ jtwc_io IO011997 19.3000 90.5000 105 3 19.3000 90.3000 SCS(H) 77 974 4.50000 30 10 8
1997133N03092 1997 30 NI BB NOT_NAMED 1997-05-18 21:00:00 NR 19.7293 90.5532 main 218 179 P___P_________ IO011997 19.7575 90.6350 107 3 19.7011 90.4715 SCS(H) 83 971 36 9 25
1997133N03092 1997 30 NI BB NOT_NAMED 1997-05-19 00:00:00 NR 20.1000 90.8000 90 968 newdelhi main 179 130 O___O_________ jtwc_io IO011997 20.2000 90.8000 110 3 20.0000 90.8000 SCS(H) 90 968 5.00000 42 9 33
1997133N03092 1997 30 NI BB NOT_NAMED 1997-05-19 03:00:00 NR 20.4712 91.0676 90 964 newdelhi main 130 108 P___O_________ IO011997 20.6424 90.9353 112 3 20.3000 91.2000 SCS(H) 90 964 5.00000 42 8 29
1997133N03092 1997 30 NI BB NOT_NAMED 1997-05-19 06:00:00 NR 20.7571 91.1857 90 964 newdelhi main 103 51 O___O_________ jtwc_io IO011997 21.1000 91.1000 115 4 20.3000 91.3000 SCS(H) 90 964 5.00000 42 12 15
1997133N03092 1997 30 NI BB NOT_NAMED 1997-05-19 09:00:00 NR 21.5900 91.3801 90 964 newdelhi main 52 23 P___O_________ IO011997 21.5849 91.3202 115 4 21.6000 91.5000 SCS(H) 90 964 5.00000 42 14 17
1997133N03092 1997 30 NI BB NOT_NAMED 1997-05-19 12:00:00 NR 22.1000 91.6400 90 964 newdelhi main 23 0 O___O_________ jtwc_io IO011997 22.1000 91.6000 115 4 22.1000 91.8000 SCS(H) 90 964 5.00000 42 10 23
1997133N03092 1997 30 NI BB NOT_NAMED 1997-05-19 15:00:00 NR 22.5511 91.8113 main 0 0 P_____________ IO011997 22.5511 91.8113 102 3 13 29
1997133N03092 1997 30 NI BB NOT_NAMED 1997-05-19 18:00:00 NR 23.2000 92.3000 main 0 0 O_____________ jtwc_io IO011997 23.2000 92.3000 90 2 22 39
1997133N03092 1997 30 NI BB NOT_NAMED 1997-05-19 21:00:00 NR 24.2607 93.3414 main 0 0 P_____________ IO011997 24.2607 93.3414 77 1 32 44
1997133N03092 1997 30 NI BB NOT_NAMED 1997-05-20 00:00:00 NR 25.5000 94.7000 main 0 0 O_____________ jtwc_io IO011997 25.5000 94.7000 65 1 35 46
1997133N03092 1997 30 NI BB NOT_NAMED 1997-05-20 03:00:00 NR 26.6816 96.0985 main 0 0 P_____________ IO011997 26.6816 96.0985 57 0 34 47
1997133N03092 1997 30 NI BB NOT_NAMED 1997-05-20 06:00:00 NR 27.8000 97.5000 main 0 O_____________ jtwc_io IO011997 27.8000 97.5000 50 0 34 48

About IBTrACS Database

This database is a web-friendly format of International Best Track Archive for Climate Stewardship (IBTrACS), a global best track data archive curated by NOAA dating back to 1842.

Updated: 2021-12-01